PWSweather.com
Personal Weather Stations
Station Observations
KVAGLENALL
West Henrico, Glen Allen, VA 23060-6503

West HenricoGlen Allen, VA 23060-6503

Lat: 37.6554, Lon: -77.5693

Elevation: 273

Station Type: Davis Vantage Pro II

www.glenallenweather.com

High Low Average
Temperature 54.7°F12.6°C 50.5°F10.3°C 53.2°F11.8°C
Dew Point 53.9°F12.2°C 43.7°F6.5°C 49.8°F9.9°C
Winds 13.0 mph 20.9 kmh Calm Calm 2.0 mph SSW3.2 kmh SSW
Wind Gusts 14.1 mph22.7 kmh -- 4.0 mph6.4 kmh
Humidity 98% 68% 88%
Pressure 29.94 in1013.9 mb 29.49 in998.6 mb -
Precipitation 0.00 in0.0 mm - -
Hour Temp Dew Point Humidity Winds Wind Gusts Pressure Precip Precip Rate Daily Precip Total
12:00 AM 54.5°F12.5°C 43.0°F6.1°C 65% 5.0 mph S8.0 kmh S 8.1 mph13.0 kmh 29.94 in1013.9 mb 0.00 in0.0 mm 0.00 in0.0 mm 0.00 in0.0 mm
12:15 AM 54.4°F12.4°C 43.3°F6.3°C 66% 2.0 mph WSW3.2 kmh WSW 8.1 mph13.0 kmh 29.94 in1013.9 mb 0.00 in0.0 mm 0.00 in0.0 mm 0.00 in0.0 mm
12:30 AM 54.3°F12.4°C 43.6°F6.4°C 67% 3.0 mph SW4.8 kmh SW 3.0 mph4.8 kmh 29.95 in1014.2 mb 0.00 in0.0 mm 0.00 in0.0 mm 0.00 in0.0 mm
12:45 AM 54.3°F12.4°C 43.6°F6.4°C 67% 3.0 mph SSW4.8 kmh SSW 7.1 mph11.4 kmh 29.93 in1013.5 mb 0.00 in0.0 mm 0.00 in0.0 mm 0.00 in0.0 mm
01:00 AM 54.0°F12.2°C 43.7°F6.5°C 68% 6.0 mph SW9.7 kmh SW 6.1 mph9.8 kmh 29.93 in1013.5 mb 0.00 in0.0 mm 0.00 in0.0 mm 0.00 in0.0 mm
01:15 AM 53.7°F12.1°C 44.1°F6.7°C 70% 3.0 mph WSW4.8 kmh WSW 4.0 mph6.4 kmh 29.94 in1013.9 mb 0.00 in0.0 mm 0.00 in0.0 mm 0.00 in0.0 mm
01:30 AM 53.8°F12.1°C 44.2°F6.8°C 70% 4.0 mph S6.4 kmh S 6.1 mph9.8 kmh 29.94 in1013.9 mb 0.00 in0.0 mm 0.00 in0.0 mm 0.00 in0.0 mm
01:45 AM 53.7°F12.1°C 44.5°F6.9°C 71% 6.0 mph SW9.7 kmh SW 10.1 mph16.3 kmh 29.93 in1013.5 mb 0.00 in0.0 mm 0.00 in0.0 mm 0.00 in0.0 mm
02:00 AM 53.5°F11.9°C 44.7°F7.1°C 72% 8.0 mph SSW12.9 kmh SSW 8.1 mph13.0 kmh 29.92 in1013.2 mb 0.00 in0.0 mm 0.00 in0.0 mm 0.00 in0.0 mm
02:15 AM 53.3°F11.8°C 44.5°F6.9°C 72% 1.0 mph SSW1.6 kmh SSW 4.0 mph6.4 kmh 29.93 in1013.5 mb 0.00 in0.0 mm 0.00 in0.0 mm 0.00 in0.0 mm
02:30 AM 53.2°F11.8°C 44.8°F7.1°C 73% 4.0 mph SW6.4 kmh SW 6.1 mph9.8 kmh 29.92 in1013.2 mb 0.00 in0.0 mm 0.00 in0.0 mm 0.00 in0.0 mm
02:45 AM 53.0°F11.7°C 44.9°F7.2°C 74% 4.0 mph SW6.4 kmh SW 6.1 mph9.8 kmh 29.91 in1012.9 mb 0.00 in0.0 mm 0.00 in0.0 mm 0.00 in0.0 mm
03:00 AM 52.6°F11.4°C 45.2°F7.3°C 76% 1.0 mph SW1.6 kmh SW 5.1 mph8.2 kmh 29.90 in1012.5 mb 0.00 in0.0 mm 0.00 in0.0 mm 0.00 in0.0 mm
03:15 AM 52.4°F11.3°C 45.4°F7.4°C 77% 4.0 mph SW6.4 kmh SW 6.1 mph9.8 kmh 29.89 in1012.2 mb 0.00 in0.0 mm 0.00 in0.0 mm 0.00 in0.0 mm
03:30 AM 52.3°F11.3°C 45.3°F7.4°C 77% Calm Calm 2.0 mph3.2 kmh 29.88 in1011.9 mb 0.00 in0.0 mm 0.00 in0.0 mm 0.00 in0.0 mm
03:45 AM 52.0°F11.1°C 45.3°F7.4°C 78% 3.0 mph S4.8 kmh S 4.0 mph6.4 kmh 29.88 in1011.9 mb 0.00 in0.0 mm 0.00 in0.0 mm 0.00 in0.0 mm
04:00 AM 51.8°F11.0°C 45.5°F7.5°C 79% Calm Calm 1.0 mph1.6 kmh 29.86 in1011.2 mb 0.00 in0.0 mm 0.00 in0.0 mm 0.00 in0.0 mm
04:15 AM 51.6°F10.9°C 45.6°F7.6°C 80% 1.0 mph SW1.6 kmh SW 3.0 mph4.8 kmh 29.87 in1011.5 mb 0.00 in0.0 mm 0.00 in0.0 mm 0.00 in0.0 mm
04:30 AM 51.4°F10.8°C 45.4°F7.4°C 80% Calm Calm -- 29.88 in1011.9 mb 0.00 in0.0 mm 0.00 in0.0 mm 0.00 in0.0 mm
04:45 AM 51.6°F10.9°C 45.9°F7.7°C 81% Calm Calm 1.0 mph1.6 kmh 29.88 in1011.9 mb 0.00 in0.0 mm 0.00 in0.0 mm 0.00 in0.0 mm
05:00 AM 51.3°F10.7°C 45.6°F7.6°C 81% Calm Calm -- 29.86 in1011.2 mb 0.00 in0.0 mm 0.00 in0.0 mm 0.00 in0.0 mm
05:15 AM 51.2°F10.7°C 45.9°F7.7°C 82% Calm Calm -- 29.86 in1011.2 mb 0.00 in0.0 mm 0.00 in0.0 mm 0.00 in0.0 mm
05:30 AM 51.0°F10.6°C 46.0°F7.8°C 83% 1.0 mph SW1.6 kmh SW 2.0 mph3.2 kmh 29.85 in1010.8 mb 0.00 in0.0 mm 0.00 in0.0 mm 0.00 in0.0 mm
05:45 AM 50.8°F10.4°C 45.8°F7.7°C 83% Calm Calm -- 29.86 in1011.2 mb 0.00 in0.0 mm 0.00 in0.0 mm 0.00 in0.0 mm
06:00 AM 50.7°F10.4°C 46.0°F7.8°C 84% Calm Calm -- 29.86 in1011.2 mb 0.00 in0.0 mm 0.00 in0.0 mm 0.00 in0.0 mm
06:15 AM 50.7°F10.4°C 46.0°F7.8°C 84% Calm Calm 1.0 mph1.6 kmh 29.87 in1011.5 mb 0.00 in0.0 mm 0.00 in0.0 mm 0.00 in0.0 mm
06:30 AM 50.9°F10.5°C 45.9°F7.7°C 83% Calm Calm -- 29.87 in1011.5 mb 0.00 in0.0 mm 0.00 in0.0 mm 0.00 in0.0 mm
06:45 AM 50.8°F10.4°C 46.1°F7.8°C 84% Calm Calm -- 29.87 in1011.5 mb 0.00 in0.0 mm 0.00 in0.0 mm 0.00 in0.0 mm
07:00 AM 50.7°F10.4°C 46.3°F7.9°C 85% Calm Calm -- 29.87 in1011.5 mb 0.00 in0.0 mm 0.00 in0.0 mm 0.00 in0.0 mm
07:15 AM 50.6°F10.3°C 46.5°F8.1°C 86% 1.0 mph S1.6 kmh S 2.0 mph3.2 kmh 29.86 in1011.2 mb 0.00 in0.0 mm 0.00 in0.0 mm 0.00 in0.0 mm
07:30 AM 50.7°F10.4°C 46.3°F7.9°C 85% 1.0 mph SSW1.6 kmh SSW 1.0 mph1.6 kmh 29.86 in1011.2 mb 0.00 in0.0 mm 0.00 in0.0 mm 0.00 in0.0 mm
07:45 AM 50.7°F10.4°C 46.3°F7.9°C 85% Calm Calm -- 29.87 in1011.5 mb 0.00 in0.0 mm 0.00 in0.0 mm 0.00 in0.0 mm
08:00 AM 50.5°F10.3°C 46.1°F7.8°C 85% Calm Calm -- 29.87 in1011.5 mb 0.00 in0.0 mm 0.00 in0.0 mm 0.00 in0.0 mm
08:15 AM 50.6°F10.3°C 46.5°F8.1°C 86% 1.0 mph S1.6 kmh S 5.1 mph8.2 kmh 29.85 in1010.8 mb 0.00 in0.0 mm 0.00 in0.0 mm 0.00 in0.0 mm
08:30 AM 50.8°F10.4°C 46.4°F8.0°C 85% Calm Calm 1.0 mph1.6 kmh 29.86 in1011.2 mb 0.00 in0.0 mm 0.00 in0.0 mm 0.00 in0.0 mm
08:45 AM 51.1°F10.6°C 46.7°F8.2°C 85% 1.0 mph SSW1.6 kmh SSW 2.0 mph3.2 kmh 29.86 in1011.2 mb 0.00 in0.0 mm 0.00 in0.0 mm 0.00 in0.0 mm
09:00 AM 51.5°F10.8°C 47.1°F8.4°C 85% 1.0 mph SSW1.6 kmh SSW 2.0 mph3.2 kmh 29.85 in1010.8 mb 0.00 in0.0 mm 0.00 in0.0 mm 0.00 in0.0 mm
09:15 AM 51.8°F11.0°C 47.4°F8.6°C 85% Calm Calm 1.0 mph1.6 kmh 29.83 in1010.2 mb 0.00 in0.0 mm 0.00 in0.0 mm 0.00 in0.0 mm
09:30 AM 52.4°F11.3°C 47.7°F8.7°C 84% 4.0 mph SE6.4 kmh SE 6.1 mph9.8 kmh 29.83 in1010.2 mb 0.00 in0.0 mm 0.00 in0.0 mm 0.00 in0.0 mm
09:45 AM 52.4°F11.3°C 47.7°F8.7°C 84% 6.0 mph S9.7 kmh S 6.1 mph9.8 kmh 29.84 in1010.5 mb 0.00 in0.0 mm 0.00 in0.0 mm 0.00 in0.0 mm
10:00 AM 52.6°F11.4°C 47.9°F8.8°C 84% Calm Calm 4.0 mph6.4 kmh 29.83 in1010.2 mb 0.00 in0.0 mm 0.00 in0.0 mm 0.00 in0.0 mm
10:15 AM 52.7°F11.5°C 48.0°F8.9°C 84% Calm Calm -- 29.83 in1010.2 mb 0.00 in0.0 mm 0.00 in0.0 mm 0.00 in0.0 mm
10:30 AM 52.9°F11.6°C 48.2°F9.0°C 84% 2.0 mph SW3.2 kmh SW 5.1 mph8.2 kmh 29.85 in1010.8 mb 0.00 in0.0 mm 0.00 in0.0 mm 0.00 in0.0 mm
10:45 AM 53.0°F11.7°C 48.6°F9.2°C 85% 1.0 mph WSW1.6 kmh WSW 2.0 mph3.2 kmh 29.85 in1010.8 mb 0.00 in0.0 mm 0.00 in0.0 mm 0.00 in0.0 mm
11:00 AM 53.0°F11.7°C 48.6°F9.2°C 85% 5.0 mph SW8.0 kmh SW 6.1 mph9.8 kmh 29.84 in1010.5 mb 0.00 in0.0 mm 0.00 in0.0 mm 0.00 in0.0 mm
11:15 AM 53.6°F12.0°C 49.5°F9.7°C 86% 5.0 mph WSW8.0 kmh WSW 5.1 mph8.2 kmh 29.82 in1009.8 mb 0.00 in0.0 mm 0.00 in0.0 mm 0.00 in0.0 mm
11:30 AM 53.8°F12.1°C 50.0°F10.0°C 87% 2.0 mph SSW3.2 kmh SSW 4.0 mph6.4 kmh 29.82 in1009.8 mb 0.00 in0.0 mm 0.00 in0.0 mm 0.00 in0.0 mm
11:45 AM 54.1°F12.3°C 50.3°F10.2°C 87% 4.0 mph SSW6.4 kmh SSW 4.0 mph6.4 kmh 29.82 in1009.8 mb 0.00 in0.0 mm 0.00 in0.0 mm 0.00 in0.0 mm
12:00 PM 54.1°F12.3°C 50.3°F10.2°C 87% 3.0 mph SSW4.8 kmh SSW 7.1 mph11.4 kmh 29.81 in1009.5 mb 0.00 in0.0 mm 0.00 in0.0 mm 0.00 in0.0 mm
12:15 PM 53.8°F12.1°C 50.3°F10.2°C 88% 2.0 mph SSW3.2 kmh SSW 5.1 mph8.2 kmh 29.80 in1009.1 mb 0.00 in0.0 mm 0.00 in0.0 mm 0.00 in0.0 mm
12:30 PM 53.7°F12.1°C 50.5°F10.3°C 89% 3.0 mph SW4.8 kmh SW 4.0 mph6.4 kmh 29.80 in1009.1 mb 0.00 in0.0 mm 0.00 in0.0 mm 0.00 in0.0 mm
12:45 PM 53.7°F12.1°C 50.5°F10.3°C 89% 5.0 mph SW8.0 kmh SW 6.1 mph9.8 kmh 29.79 in1008.8 mb 0.01 in0.3 mm 0.04 in1.0 mm 0.01 in0.3 mm
01:00 PM 54.0°F12.2°C 50.8°F10.4°C 89% 2.0 mph SSW3.2 kmh SSW 3.0 mph4.8 kmh 29.79 in1008.8 mb 0.01 in0.3 mm 0.00 in0.0 mm 0.01 in0.3 mm
01:15 PM 54.1°F12.3°C 50.9°F10.5°C 89% Calm Calm -- 29.79 in1008.8 mb 0.01 in0.3 mm 0.00 in0.0 mm 0.01 in0.3 mm
01:30 PM 54.1°F12.3°C 50.9°F10.5°C 89% Calm Calm -- 29.78 in1008.5 mb 0.02 in0.5 mm 0.04 in1.0 mm 0.02 in0.5 mm
01:45 PM 54.1°F12.3°C 51.2°F10.7°C 90% Calm Calm -- 29.77 in1008.1 mb 0.04 in1.0 mm 0.08 in2.0 mm 0.04 in1.0 mm
02:00 PM 53.9°F12.2°C 51.3°F10.7°C 91% Calm Calm -- 29.76 in1007.8 mb 0.05 in1.3 mm 0.01 in0.3 mm 0.05 in1.3 mm
02:15 PM 54.1°F12.3°C 51.8°F11.0°C 92% Calm Calm -- 29.74 in1007.1 mb 0.06 in1.5 mm 0.04 in1.0 mm 0.06 in1.5 mm
02:30 PM 54.4°F12.4°C 52.4°F11.3°C 93% Calm Calm -- 29.74 in1007.1 mb 0.06 in1.5 mm 0.00 in0.0 mm 0.06 in1.5 mm
02:45 PM 54.0°F12.2°C 51.7°F10.9°C 92% Calm Calm 2.0 mph3.2 kmh 29.72 in1006.4 mb 0.07 in1.8 mm 0.04 in1.0 mm 0.07 in1.8 mm
03:00 PM 54.2°F12.3°C 52.2°F11.2°C 93% Calm Calm 1.0 mph1.6 kmh 29.73 in1006.8 mb 0.04 in1.0 mm 0.00 in0.0 mm 0.07 in1.8 mm
03:15 PM 54.3°F12.4°C 52.6°F11.4°C 94% 1.0 mph S1.6 kmh S 2.0 mph3.2 kmh 29.72 in1006.4 mb 0.06 in1.5 mm 0.08 in2.0 mm 0.09 in2.3 mm
03:30 PM 54.3°F12.4°C 52.6°F11.4°C 94% 2.0 mph SSW3.2 kmh SSW 3.0 mph4.8 kmh 29.72 in1006.4 mb 0.06 in1.5 mm 0.00 in0.0 mm 0.09 in2.3 mm
03:45 PM 54.0°F12.2°C 52.3°F11.3°C 94% 2.0 mph S3.2 kmh S 4.0 mph6.4 kmh 29.70 in1005.8 mb 0.07 in1.8 mm 0.04 in1.0 mm 0.10 in2.5 mm
04:00 PM 54.1°F12.3°C 52.7°F11.5°C 95% 4.0 mph S6.4 kmh S 5.1 mph8.2 kmh 29.68 in1005.1 mb 0.07 in1.8 mm 0.00 in0.0 mm 0.10 in2.5 mm
04:15 PM 54.2°F12.3°C 52.8°F11.6°C 95% 5.0 mph SE8.0 kmh SE 7.1 mph11.4 kmh 29.67 in1004.7 mb 0.07 in1.8 mm 0.00 in0.0 mm 0.10 in2.5 mm
04:30 PM 54.2°F12.3°C 52.8°F11.6°C 95% 5.0 mph SE8.0 kmh SE 7.1 mph11.4 kmh 29.65 in1004.1 mb 0.03 in0.8 mm 0.00 in0.0 mm 0.10 in2.5 mm
04:45 PM 54.1°F12.3°C 52.7°F11.5°C 95% 2.0 mph SE3.2 kmh SE 7.1 mph11.4 kmh 29.63 in1003.4 mb 0.03 in0.8 mm 0.00 in0.0 mm 0.10 in2.5 mm
05:00 PM 54.2°F12.3°C 52.8°F11.6°C 95% 4.0 mph SSE6.4 kmh SSE 13.1 mph21.1 kmh 29.63 in1003.4 mb 0.00 in0.0 mm 0.00 in0.0 mm 0.10 in2.5 mm
05:15 PM 54.4°F12.4°C 53.3°F11.8°C 96% 5.0 mph S8.0 kmh S 7.1 mph11.4 kmh 29.64 in1003.7 mb 0.00 in0.0 mm 0.00 in0.0 mm 0.10 in2.5 mm
05:30 PM 54.4°F12.4°C 53.3°F11.8°C 96% 3.0 mph SE4.8 kmh SE 4.0 mph6.4 kmh 29.63 in1003.4 mb 0.00 in0.0 mm 0.00 in0.0 mm 0.10 in2.5 mm
05:45 PM 54.4°F12.4°C 53.3°F11.8°C 96% 5.0 mph S8.0 kmh S 5.1 mph8.2 kmh 29.62 in1003.0 mb 0.00 in0.0 mm 0.00 in0.0 mm 0.10 in2.5 mm
06:00 PM 54.4°F12.4°C 53.3°F11.8°C 96% Calm Calm 10.1 mph16.3 kmh 29.59 in1002.0 mb 0.00 in0.0 mm 0.00 in0.0 mm 0.10 in2.5 mm
06:15 PM 54.5°F12.5°C 53.4°F11.9°C 96% 3.0 mph SE4.8 kmh SE 6.1 mph9.8 kmh 29.58 in1001.7 mb 0.00 in0.0 mm 0.00 in0.0 mm 0.10 in2.5 mm
06:30 PM 54.4°F12.4°C 53.5°F11.9°C 97% 1.0 mph W1.6 kmh W 4.0 mph6.4 kmh 29.57 in1001.4 mb 0.00 in0.0 mm 0.00 in0.0 mm 0.10 in2.5 mm
06:45 PM 54.7°F12.6°C 53.8°F12.1°C 97% 1.0 mph SSW1.6 kmh SSW 3.0 mph4.8 kmh 29.59 in1002.0 mb 0.00 in0.0 mm 0.00 in0.0 mm 0.10 in2.5 mm
07:00 PM 54.7°F12.6°C 53.6°F12.0°C 96% 1.0 mph SSW1.6 kmh SSW 2.0 mph3.2 kmh 29.59 in1002.0 mb 0.01 in0.3 mm 0.01 in0.3 mm 0.11 in2.8 mm
07:15 PM 54.7°F12.6°C 53.6°F12.0°C 96% Calm Calm -- 29.60 in1002.4 mb 0.01 in0.3 mm 0.00 in0.0 mm 0.11 in2.8 mm
07:30 PM 54.7°F12.6°C 53.8°F12.1°C 97% Calm Calm -- 29.58 in1001.7 mb 0.01 in0.3 mm 0.00 in0.0 mm 0.11 in2.8 mm
07:45 PM 54.6°F12.6°C 53.7°F12.1°C 97% Calm Calm -- 29.60 in1002.4 mb 0.01 in0.3 mm 0.00 in0.0 mm 0.11 in2.8 mm
08:00 PM 54.6°F12.6°C 53.7°F12.1°C 97% 1.0 mph SW1.6 kmh SW 2.0 mph3.2 kmh 29.60 in1002.4 mb 0.00 in0.0 mm 0.00 in0.0 mm 0.11 in2.8 mm
08:15 PM 54.6°F12.6°C 53.7°F12.1°C 97% 2.0 mph WSW3.2 kmh WSW 2.0 mph3.2 kmh 29.58 in1001.7 mb 0.00 in0.0 mm 0.00 in0.0 mm 0.11 in2.8 mm
08:30 PM 54.7°F12.6°C 53.8°F12.1°C 97% Calm Calm -- 29.59 in1002.0 mb 0.00 in0.0 mm 0.00 in0.0 mm 0.11 in2.8 mm
08:45 PM 54.6°F12.6°C 53.7°F12.1°C 97% 1.0 mph WSW1.6 kmh WSW 1.0 mph1.6 kmh 29.59 in1002.0 mb 0.00 in0.0 mm 0.00 in0.0 mm 0.11 in2.8 mm
09:00 PM 54.7°F12.6°C 53.8°F12.1°C 97% 2.0 mph WSW3.2 kmh WSW 3.0 mph4.8 kmh 29.58 in1001.7 mb 0.00 in0.0 mm 0.00 in0.0 mm 0.11 in2.8 mm
09:15 PM 54.6°F12.6°C 53.7°F12.1°C 97% 2.0 mph S3.2 kmh S 5.1 mph8.2 kmh 29.58 in1001.7 mb 0.00 in0.0 mm 0.00 in0.0 mm 0.11 in2.8 mm
09:30 PM 54.7°F12.6°C 53.8°F12.1°C 97% 3.0 mph SSW4.8 kmh SSW 4.0 mph6.4 kmh 29.57 in1001.4 mb 0.00 in0.0 mm 0.00 in0.0 mm 0.11 in2.8 mm
09:45 PM 54.6°F12.6°C 53.7°F12.1°C 97% 3.0 mph SW4.8 kmh SW 7.1 mph11.4 kmh 29.56 in1001.0 mb 0.00 in0.0 mm 0.00 in0.0 mm 0.11 in2.8 mm
10:00 PM 54.5°F12.5°C 53.9°F12.2°C 98% 3.0 mph SSW4.8 kmh SSW 5.1 mph8.2 kmh 29.54 in1000.3 mb 0.00 in0.0 mm 0.00 in0.0 mm 0.11 in2.8 mm
10:15 PM 54.4°F12.4°C 53.8°F12.1°C 98% 4.0 mph SSW6.4 kmh SSW 6.1 mph9.8 kmh 29.53 in1000.0 mb 0.00 in0.0 mm 0.00 in0.0 mm 0.11 in2.8 mm
10:30 PM 54.3°F12.4°C 53.7°F12.1°C 98% 8.0 mph SSW12.9 kmh SSW 8.1 mph13.0 kmh 29.52 in999.7 mb 0.00 in0.0 mm 0.00 in0.0 mm 0.11 in2.8 mm
10:45 PM 54.4°F12.4°C 53.8°F12.1°C 98% 6.0 mph SSW9.7 kmh SSW 10.1 mph16.3 kmh 29.52 in999.7 mb 0.00 in0.0 mm 0.00 in0.0 mm 0.11 in2.8 mm
11:00 PM 54.5°F12.5°C 53.9°F12.2°C 98% 4.0 mph SSW6.4 kmh SSW 9.1 mph14.6 kmh 29.52 in999.7 mb 0.00 in0.0 mm 0.00 in0.0 mm 0.11 in2.8 mm
11:15 PM 54.6°F12.6°C 53.7°F12.1°C 97% 4.0 mph WSW6.4 kmh WSW 5.1 mph8.2 kmh 29.51 in999.3 mb 0.00 in0.0 mm 0.00 in0.0 mm 0.11 in2.8 mm
11:30 PM 54.7°F12.6°C 53.8°F12.1°C 97% 5.0 mph SW8.0 kmh SW 13.1 mph21.1 kmh 29.51 in999.3 mb 0.00 in0.0 mm 0.00 in0.0 mm 0.11 in2.8 mm
11:45 PM 54.7°F12.6°C 53.8°F12.1°C 97% 5.0 mph SW8.0 kmh SW 10.1 mph16.3 kmh 29.50 in999.0 mb 0.00 in0.0 mm 0.00 in0.0 mm 0.11 in2.8 mm